sensor_id;sensor_type;location;lat;lon;timestamp;pressure;altitude;pressure_sealevel;temperature;humidity
80137;BME280;69466;55.948;37.484;2024-01-11T00:00:17;97748.22;;;-4.68;75.02
80137;BME280;69466;55.948;37.484;2024-01-11T00:02:45;97738.97;;;-4.72;74.90
80137;BME280;69466;55.948;37.484;2024-01-11T00:05:12;97742.44;;;-4.64;74.70
80137;BME280;69466;55.948;37.484;2024-01-11T00:07:38;97734.13;;;-4.61;75.23
80137;BME280;69466;55.948;37.484;2024-01-11T00:10:04;97732.28;;;-4.52;75.35
80137;BME280;69466;55.948;37.484;2024-01-11T00:12:30;97727.97;;;-4.45;75.21
80137;BME280;69466;55.948;37.484;2024-01-11T00:14:57;97715.91;;;-4.48;75.01
80137;BME280;69466;55.948;37.484;2024-01-11T00:17:24;97696.91;;;-4.51;75.38
80137;BME280;69466;55.948;37.484;2024-01-11T00:19:51;97688.66;;;-4.56;75.52
80137;BME280;69466;55.948;37.484;2024-01-11T00:22:17;97690.94;;;-4.53;75.88
80137;BME280;69466;55.948;37.484;2024-01-11T00:24:43;97674.06;;;-4.52;75.71
80137;BME280;69466;55.948;37.484;2024-01-11T00:27:11;97662.81;;;-4.46;75.49
80137;BME280;69466;55.948;37.484;2024-01-11T00:29:37;97653.69;;;-4.43;75.97
80137;BME280;69466;55.948;37.484;2024-01-11T00:32:03;97652.47;;;-4.33;75.51
80137;BME280;69466;55.948;37.484;2024-01-11T00:34:29;97659.06;;;-4.29;75.96
80137;BME280;69466;55.948;37.484;2024-01-11T00:36:55;97646.81;;;-4.30;75.93
80137;BME280;69466;55.948;37.484;2024-01-11T00:39:44;97641.00;;;-4.25;76.55
80137;BME280;69466;55.948;37.484;2024-01-11T00:42:18;97615.72;;;-4.28;76.61
80137;BME280;69466;55.948;37.484;2024-01-11T00:44:44;97598.31;;;-4.22;76.41
80137;BME280;69466;55.948;37.484;2024-01-11T00:47:12;97608.06;;;-4.23;76.55
80137;BME280;69466;55.948;37.484;2024-01-11T00:49:38;97588.19;;;-4.19;76.80
80137;BME280;69466;55.948;37.484;2024-01-11T00:52:04;97578.88;;;-4.15;76.89
80137;BME280;69466;55.948;37.484;2024-01-11T00:54:30;97579.53;;;-4.13;76.93
80137;BME280;69466;55.948;37.484;2024-01-11T00:56:56;97587.13;;;-4.10;77.04
80137;BME280;69466;55.948;37.484;2024-01-11T00:59:23;97577.81;;;-4.06;77.17
80137;BME280;69466;55.948;37.484;2024-01-11T01:01:49;97563.88;;;-3.99;76.94
80137;BME280;69466;55.948;37.484;2024-01-11T01:04:15;97563.63;;;-3.90;77.09
80137;BME280;69466;55.948;37.484;2024-01-11T01:06:43;97554.31;;;-3.86;76.81
80137;BME280;69466;55.948;37.484;2024-01-11T01:09:09;97544.81;;;-3.80;77.03
80137;BME280;69466;55.948;37.484;2024-01-11T01:11:35;97522.81;;;-3.81;77.16
80137;BME280;69466;55.948;37.484;2024-01-11T01:14:01;97534.59;;;-3.69;77.03
80137;BME280;69466;55.948;37.484;2024-01-11T01:16:27;97499.06;;;-3.74;77.57
80137;BME280;69466;55.948;37.484;2024-01-11T01:18:53;97503.16;;;-3.57;77.34
80137;BME280;69466;55.948;37.484;2024-01-11T01:21:18;97496.03;;;-3.57;77.64
80137;BME280;69466;55.948;37.484;2024-01-11T01:23:44;97489.19;;;-3.51;78.04
80137;BME280;69466;55.948;37.484;2024-01-11T01:26:10;97491.41;;;-3.40;77.23
80137;BME280;69466;55.948;37.484;2024-01-11T01:28:36;97474.78;;;-3.48;77.70
80137;BME280;69466;55.948;37.484;2024-01-11T01:31:02;97478.59;;;-3.36;77.83
80137;BME280;69466;55.948;37.484;2024-01-11T01:33:28;97483.41;;;-3.25;77.86
80137;BME280;69466;55.948;37.484;2024-01-11T01:35:54;97458.53;;;-3.24;77.04
80137;BME280;69466;55.948;37.484;2024-01-11T01:38:20;97466.59;;;-3.18;77.29
80137;BME280;69466;55.948;37.484;2024-01-11T01:40:46;97442.06;;;-3.20;77.43
80137;BME280;69466;55.948;37.484;2024-01-11T01:43:13;97446.63;;;-3.14;77.69
80137;BME280;69466;55.948;37.484;2024-01-11T01:45:39;97435.84;;;-3.12;77.99
80137;BME280;69466;55.948;37.484;2024-01-11T01:48:05;97435.28;;;-3.07;78.30
80137;BME280;69466;55.948;37.484;2024-01-11T01:50:32;97423.03;;;-3.08;78.35
80137;BME280;69466;55.948;37.484;2024-01-11T01:52:59;97422.34;;;-2.96;78.19
80137;BME280;69466;55.948;37.484;2024-01-11T01:55:26;97413.25;;;-2.87;77.97
80137;BME280;69466;55.948;37.484;2024-01-11T01:57:53;97409.66;;;-2.79;77.62
80137;BME280;69466;55.948;37.484;2024-01-11T02:00:20;97413.50;;;-2.82;78.24
80137;BME280;69466;55.948;37.484;2024-01-11T02:02:50;97389.94;;;-2.91;78.48
80137;BME280;69466;55.948;37.484;2024-01-11T02:05:16;97388.28;;;-2.92;77.91
80137;BME280;69466;55.948;37.484;2024-01-11T02:07:44;97361.00;;;-2.86;78.78
80137;BME280;69466;55.948;37.484;2024-01-11T02:10:10;97367.00;;;-2.78;78.34
80137;BME280;69466;55.948;37.484;2024-01-11T02:12:36;97367.09;;;-2.71;78.66
80137;BME280;69466;55.948;37.484;2024-01-11T02:15:05;97356.25;;;-2.70;79.10
80137;BME280;69466;55.948;37.484;2024-01-11T02:17:36;97349.31;;;-2.71;78.92
80137;BME280;69466;55.948;37.484;2024-01-11T02:20:05;97345.84;;;-2.71;78.36
80137;BME280;69466;55.948;37.484;2024-01-11T02:22:35;97342.28;;;-2.57;79.17
80137;BME280;69466;55.948;37.484;2024-01-11T02:25:02;97322.06;;;-2.58;79.20
80137;BME280;69466;55.948;37.484;2024-01-11T02:27:30;97315.09;;;-2.59;79.38
80137;BME280;69466;55.948;37.484;2024-01-11T02:29:56;97303.09;;;-2.55;79.09
80137;BME280;69466;55.948;37.484;2024-01-11T02:32:22;97309.28;;;-2.48;79.76
80137;BME280;69466;55.948;37.484;2024-01-11T02:34:48;97303.59;;;-2.38;78.84
80137;BME280;69466;55.948;37.484;2024-01-11T02:37:15;97295.88;;;-2.33;79.56
80137;BME280;69466;55.948;37.484;2024-01-11T02:39:42;97295.69;;;-2.32;79.67
80137;BME280;69466;55.948;37.484;2024-01-11T02:42:08;97286.13;;;-2.26;79.76
80137;BME280;69466;55.948;37.484;2024-01-11T02:44:34;97282.44;;;-2.25;79.56
80137;BME280;69466;55.948;37.484;2024-01-11T02:47:00;97274.09;;;-2.22;79.57
80137;BME280;69466;55.948;37.484;2024-01-11T02:49:26;97266.75;;;-2.20;80.48
80137;BME280;69466;55.948;37.484;2024-01-11T02:51:52;97269.66;;;-2.08;80.20
80137;BME280;69466;55.948;37.484;2024-01-11T02:54:18;97257.00;;;-2.06;80.35
80137;BME280;69466;55.948;37.484;2024-01-11T02:56:44;97245.78;;;-2.02;80.05
80137;BME280;69466;55.948;37.484;2024-01-11T02:59:10;97234.56;;;-1.97;80.22
80137;BME280;69466;55.948;37.484;2024-01-11T03:01:36;97238.88;;;-1.90;81.27
80137;BME280;69466;55.948;37.484;2024-01-11T03:04:02;97241.97;;;-1.80;81.14
80137;BME280;69466;55.948;37.484;2024-01-11T03:06:28;97235.25;;;-1.69;80.64
80137;BME280;69466;55.948;37.484;2024-01-11T03:08:54;97232.81;;;-1.64;80.64
80137;BME280;69466;55.948;37.484;2024-01-11T03:11:19;97227.28;;;-1.56;80.77
80137;BME280;69466;55.948;37.484;2024-01-11T03:13:45;97222.41;;;-1.52;80.81
80137;BME280;69466;55.948;37.484;2024-01-11T03:16:11;97208.28;;;-1.46;81.33
80137;BME280;69466;55.948;37.484;2024-01-11T03:18:37;97202.56;;;-1.37;81.96
80137;BME280;69466;55.948;37.484;2024-01-11T03:21:10;97192.34;;;-1.26;81.18
80137;BME280;69466;55.948;37.484;2024-01-11T03:23:36;97197.06;;;-1.15;81.56
80137;BME280;69466;55.948;37.484;2024-01-11T03:26:02;97186.22;;;-1.07;81.67
80137;BME280;69466;55.948;37.484;2024-01-11T03:28:28;97175.56;;;-1.07;81.10
80137;BME280;69466;55.948;37.484;2024-01-11T03:30:54;97176.59;;;-1.02;81.23
80137;BME280;69466;55.948;37.484;2024-01-11T03:33:20;97164.91;;;-0.94;81.39
80137;BME280;69466;55.948;37.484;2024-01-11T03:35:46;97173.88;;;-0.82;81.41
80137;BME280;69466;55.948;37.484;2024-01-11T03:38:12;97173.28;;;-0.77;81.56
80137;BME280;69466;55.948;37.484;2024-01-11T03:40:38;97161.78;;;-0.78;81.65
80137;BME280;69466;55.948;37.484;2024-01-11T03:43:04;97163.84;;;-0.67;81.93
80137;BME280;69466;55.948;37.484;2024-01-11T03:45:30;97151.53;;;-0.61;82.07
80137;BME280;69466;55.948;37.484;2024-01-11T03:47:56;97158.47;;;-0.54;81.75
80137;BME280;69466;55.948;37.484;2024-01-11T03:50:22;97150.88;;;-0.50;81.86
80137;BME280;69466;55.948;37.484;2024-01-11T03:52:51;97146.78;;;-0.53;81.52
80137;BME280;69466;55.948;37.484;2024-01-11T03:55:17;97144.69;;;-0.37;81.69
80137;BME280;69466;55.948;37.484;2024-01-11T03:57:44;97147.13;;;-0.36;80.92
80137;BME280;69466;55.948;37.484;2024-01-11T04:00:11;97142.81;;;-0.30;81.57
80137;BME280;69466;55.948;37.484;2024-01-11T04:02:37;97135.25;;;-0.33;81.52
80137;BME280;69466;55.948;37.484;2024-01-11T04:05:03;97135.00;;;-0.25;81.82
80137;BME280;69466;55.948;37.484;2024-01-11T04:07:30;97133.75;;;-0.23;81.64
80137;BME280;69466;55.948;37.484;2024-01-11T04:09:56;97140.78;;;-0.28;80.90
80137;BME280;69466;55.948;37.484;2024-01-11T04:12:22;97124.56;;;-0.27;81.59
80137;BME280;69466;55.948;37.484;2024-01-11T04:14:48;97126.16;;;-0.19;81.46
80137;BME280;69466;55.948;37.484;2024-01-11T04:17:14;97116.91;;;-0.17;81.35
80137;BME280;69466;55.948;37.484;2024-01-11T04:19:40;97119.94;;;-0.07;81.21
80137;BME280;69466;55.948;37.484;2024-01-11T04:22:16;97117.25;;;0.00;81.42
80137;BME280;69466;55.948;37.484;2024-01-11T04:24:43;97115.66;;;-0.08;81.69
80137;BME280;69466;55.948;37.484;2024-01-11T04:27:09;97120.97;;;-0.08;81.19
80137;BME280;69466;55.948;37.484;2024-01-11T04:29:35;97107.44;;;-0.06;81.14
80137;BME280;69466;55.948;37.484;2024-01-11T04:32:01;97101.84;;;0.02;81.35
80137;BME280;69466;55.948;37.484;2024-01-11T04:34:27;97099.44;;;-0.06;80.91
80137;BME280;69466;55.948;37.484;2024-01-11T04:36:53;97114.16;;;0.03;81.37
80137;BME280;69466;55.948;37.484;2024-01-11T04:39:19;97099.97;;;0.09;81.56
80137;BME280;69466;55.948;37.484;2024-01-11T04:41:45;97106.72;;;0.12;81.69
80137;BME280;69466;55.948;37.484;2024-01-11T04:44:11;97083.19;;;0.02;81.49
80137;BME280;69466;55.948;37.484;2024-01-11T04:46:37;97103.03;;;0.13;81.91
80137;BME280;69466;55.948;37.484;2024-01-11T04:49:03;97082.91;;;0.17;81.45
80137;BME280;69466;55.948;37.484;2024-01-11T04:51:28;97079.84;;;0.13;81.58
80137;BME280;69466;55.948;37.484;2024-01-11T04:53:54;97076.09;;;0.21;81.38
80137;BME280;69466;55.948;37.484;2024-01-11T04:56:20;97078.75;;;0.21;81.73
80137;BME280;69466;55.948;37.484;2024-01-11T04:58:47;97073.16;;;0.29;81.64
80137;BME280;69466;55.948;37.484;2024-01-11T05:01:17;97060.47;;;0.24;81.83
80137;BME280;69466;55.948;37.484;2024-01-11T05:03:47;97054.06;;;0.32;81.76
80137;BME280;69466;55.948;37.484;2024-01-11T05:06:20;97061.78;;;0.40;81.72
80137;BME280;69466;55.948;37.484;2024-01-11T05:08:47;97056.66;;;0.38;81.37
80137;BME280;69466;55.948;37.484;2024-01-11T05:11:17;97059.72;;;0.42;81.41
80137;BME280;69466;55.948;37.484;2024-01-11T05:13:47;97046.22;;;0.37;81.71
80137;BME280;69466;55.948;37.484;2024-01-11T05:16:21;97043.47;;;0.50;81.88
80137;BME280;69466;55.948;37.484;2024-01-11T05:18:49;97028.09;;;0.46;81.55
80137;BME280;69466;55.948;37.484;2024-01-11T05:21:15;97041.38;;;0.52;81.67
80137;BME280;69466;55.948;37.484;2024-01-11T05:23:41;97051.75;;;0.60;81.44
80137;BME280;69466;55.948;37.484;2024-01-11T05:26:12;97037.38;;;0.61;81.68
80137;BME280;69466;55.948;37.484;2024-01-11T05:28:38;97048.53;;;0.76;81.47
80137;BME280;69466;55.948;37.484;2024-01-11T05:31:10;97040.06;;;0.79;81.26
80137;BME280;69466;55.948;37.484;2024-01-11T05:33:37;97035.50;;;0.86;81.02
80137;BME280;69466;55.948;37.484;2024-01-11T05:36:03;97022.53;;;0.90;81.04
80137;BME280;69466;55.948;37.484;2024-01-11T05:38:29;97029.72;;;0.89;80.98
80137;BME280;69466;55.948;37.484;2024-01-11T05:40:56;97026.22;;;0.89;80.68
80137;BME280;69466;55.948;37.484;2024-01-11T05:43:22;97023.09;;;0.92;80.93
80137;BME280;69466;55.948;37.484;2024-01-11T05:45:50;97025.72;;;0.99;80.51
80137;BME280;69466;55.948;37.484;2024-01-11T05:48:16;97028.00;;;0.95;80.56
80137;BME280;69466;55.948;37.484;2024-01-11T05:50:43;97028.75;;;1.02;80.12
80137;BME280;69466;55.948;37.484;2024-01-11T05:53:10;97015.03;;;0.99;80.44
80137;BME280;69466;55.948;37.484;2024-01-11T05:55:36;97012.72;;;1.02;80.37
80137;BME280;69466;55.948;37.484;2024-01-11T05:58:03;97005.75;;;1.01;80.08
80137;BME280;69466;55.948;37.484;2024-01-11T06:00:29;97004.88;;;1.07;80.25
80137;BME280;69466;55.948;37.484;2024-01-11T06:02:55;97012.34;;;1.17;79.88
80137;BME280;69466;55.948;37.484;2024-01-11T06:05:22;96986.53;;;1.11;80.05
80137;BME280;69466;55.948;37.484;2024-01-11T06:07:51;96982.63;;;1.13;79.99
80137;BME280;69466;55.948;37.484;2024-01-11T06:10:17;96986.47;;;1.17;80.13
80137;BME280;69466;55.948;37.484;2024-01-11T06:12:45;96988.00;;;1.25;79.58
80137;BME280;69466;55.948;37.484;2024-01-11T06:15:12;96980.25;;;1.23;79.74
80137;BME280;69466;55.948;37.484;2024-01-11T06:17:39;96983.03;;;1.28;79.75
80137;BME280;69466;55.948;37.484;2024-01-11T06:20:07;96990.25;;;1.28;79.50
80137;BME280;69466;55.948;37.484;2024-01-11T06:22:38;96988.25;;;1.23;79.80
80137;BME280;69466;55.948;37.484;2024-01-11T06:25:05;96997.44;;;1.27;79.69
80137;BME280;69466;55.948;37.484;2024-01-11T06:27:33;96984.75;;;1.23;79.55
80137;BME280;69466;55.948;37.484;2024-01-11T06:30:01;96983.69;;;1.24;79.58
80137;BME280;69466;55.948;37.484;2024-01-11T06:32:31;96972.59;;;1.27;78.89
80137;BME280;69466;55.948;37.484;2024-01-11T06:34:58;96971.81;;;1.38;79.17
80137;BME280;69466;55.948;37.484;2024-01-11T06:37:24;96978.91;;;1.44;78.74
80137;BME280;69466;55.948;37.484;2024-01-11T06:39:50;96967.69;;;1.54;78.26
80137;BME280;69466;55.948;37.484;2024-01-11T06:42:16;96974.88;;;1.42;78.47
80137;BME280;69466;55.948;37.484;2024-01-11T06:44:42;96968.31;;;1.38;78.23
80137;BME280;69466;55.948;37.484;2024-01-11T06:47:07;96946.72;;;1.39;78.03
80137;BME280;69466;55.948;37.484;2024-01-11T06:49:34;96951.31;;;1.50;77.98
80137;BME280;69466;55.948;37.484;2024-01-11T06:52:00;96961.31;;;1.55;77.64
80137;BME280;69466;55.948;37.484;2024-01-11T06:54:26;96935.72;;;1.47;77.29
80137;BME280;69466;55.948;37.484;2024-01-11T06:56:53;96949.00;;;1.54;77.59
80137;BME280;69466;55.948;37.484;2024-01-11T06:59:19;96953.19;;;1.61;77.85
80137;BME280;69466;55.948;37.484;2024-01-11T07:01:45;96943.19;;;1.57;77.60
80137;BME280;69466;55.948;37.484;2024-01-11T07:04:11;96932.97;;;1.65;77.51
80137;BME280;69466;55.948;37.484;2024-01-11T07:06:37;96948.66;;;1.62;77.69
80137;BME280;69466;55.948;37.484;2024-01-11T07:09:02;96945.78;;;1.63;78.03
80137;BME280;69466;55.948;37.484;2024-01-11T07:11:28;96919.00;;;1.52;78.25
80137;BME280;69466;55.948;37.484;2024-01-11T07:13:55;96939.00;;;1.61;78.37
80137;BME280;69466;55.948;37.484;2024-01-11T07:16:21;96937.97;;;1.62;78.11
80137;BME280;69466;55.948;37.484;2024-01-11T07:18:49;96924.75;;;1.67;78.68
80137;BME280;69466;55.948;37.484;2024-01-11T07:21:24;96928.94;;;1.74;77.58
80137;BME280;69466;55.948;37.484;2024-01-11T07:23:59;96936.50;;;1.77;78.29
80137;BME280;69466;55.948;37.484;2024-01-11T07:26:25;96925.00;;;1.77;77.86
80137;BME280;69466;55.948;37.484;2024-01-11T07:28:53;96902.75;;;1.53;78.17
80137;BME280;69466;55.948;37.484;2024-01-11T07:31:21;96919.53;;;1.84;77.39
80137;BME280;69466;55.948;37.484;2024-01-11T07:33:48;96914.09;;;1.90;77.91
80137;BME280;69466;55.948;37.484;2024-01-11T07:36:14;96902.53;;;1.66;77.58
80137;BME280;69466;55.948;37.484;2024-01-11T07:38:40;96902.31;;;1.79;77.44
80137;BME280;69466;55.948;37.484;2024-01-11T07:41:06;96898.63;;;1.81;76.96
80137;BME280;69466;55.948;37.484;2024-01-11T07:43:35;96902.31;;;1.79;76.71
80137;BME280;69466;55.948;37.484;2024-01-11T07:46:05;96902.19;;;1.74;76.97
80137;BME280;69466;55.948;37.484;2024-01-11T07:48:33;96900.13;;;1.76;76.57
80137;BME280;69466;55.948;37.484;2024-01-11T07:50:59;96896.75;;;1.81;76.46
80137;BME280;69466;55.948;37.484;2024-01-11T07:53:25;96874.09;;;1.72;76.83
80137;BME280;69466;55.948;37.484;2024-01-11T07:55:52;96878.41;;;1.73;76.84
80137;BME280;69466;55.948;37.484;2024-01-11T07:58:18;96883.75;;;1.73;77.16
80137;BME280;69466;55.948;37.484;2024-01-11T08:00:47;96877.25;;;1.92;76.08
80137;BME280;69466;55.948;37.484;2024-01-11T08:03:15;96882.59;;;1.92;75.86
80137;BME280;69466;55.948;37.484;2024-01-11T08:05:42;96872.22;;;1.84;76.40
80137;BME280;69466;55.948;37.484;2024-01-11T08:08:10;96874.47;;;1.87;75.90
80137;BME280;69466;55.948;37.484;2024-01-11T08:10:36;96856.88;;;1.79;76.79
80137;BME280;69466;55.948;37.484;2024-01-11T08:13:02;96872.22;;;1.84;76.71
80137;BME280;69466;55.948;37.484;2024-01-11T08:15:28;96873.53;;;1.82;76.63
80137;BME280;69466;55.948;37.484;2024-01-11T08:17:54;96880.03;;;1.97;76.81
80137;BME280;69466;55.948;37.484;2024-01-11T08:20:20;96851.56;;;1.91;75.89
80137;BME280;69466;55.948;37.484;2024-01-11T08:22:46;96867.84;;;2.01;76.14
80137;BME280;69466;55.948;37.484;2024-01-11T08:25:13;96877.34;;;1.97;76.26
80137;BME280;69466;55.948;37.484;2024-01-11T08:27:39;96912.09;;;1.97;75.97
80137;BME280;69466;55.948;37.484;2024-01-11T08:30:05;96917.88;;;1.59;76.86
80137;BME280;69466;55.948;37.484;2024-01-11T08:32:32;96938.06;;;0.96;78.20
80137;BME280;69466;55.948;37.484;2024-01-11T08:35:05;96944.50;;;0.52;79.53
80137;BME280;69466;55.948;37.484;2024-01-11T08:37:32;96950.97;;;0.44;80.13
80137;BME280;69466;55.948;37.484;2024-01-11T08:39:59;96969.53;;;0.32;80.17
80137;BME280;69466;55.948;37.484;2024-01-11T08:42:26;96973.75;;;0.22;79.61
80137;BME280;69466;55.948;37.484;2024-01-11T08:44:52;96979.41;;;0.07;78.51
80137;BME280;69466;55.948;37.484;2024-01-11T08:47:18;96975.59;;;-0.04;78.76
80137;BME280;69466;55.948;37.484;2024-01-11T08:49:44;96983.38;;;-0.02;78.84
80137;BME280;69466;55.948;37.484;2024-01-11T08:52:10;96985.22;;;-0.03;78.77
80137;BME280;69466;55.948;37.484;2024-01-11T08:54:36;96970.00;;;-0.27;78.80
80137;BME280;69466;55.948;37.484;2024-01-11T08:57:02;96975.53;;;-0.22;77.51
80137;BME280;69466;55.948;37.484;2024-01-11T08:59:29;96984.19;;;-0.02;76.17
80137;BME280;69466;55.948;37.484;2024-01-11T09:01:55;96984.59;;;-0.05;75.29
80137;BME280;69466;55.948;37.484;2024-01-11T09:04:21;96980.19;;;-0.17;75.47
80137;BME280;69466;55.948;37.484;2024-01-11T09:06:47;96994.56;;;-0.18;75.66
80137;BME280;69466;55.948;37.484;2024-01-11T09:09:13;97015.63;;;-0.10;75.79
80137;BME280;69466;55.948;37.484;2024-01-11T09:11:40;97015.81;;;-0.05;76.11
80137;BME280;69466;55.948;37.484;2024-01-11T09:14:07;97035.50;;;-0.13;73.20
80137;BME280;69466;55.948;37.484;2024-01-11T09:16:33;97037.59;;;-0.15;71.57
80137;BME280;69466;55.948;37.484;2024-01-11T09:19:02;97049.44;;;-0.11;70.95
80137;BME280;69466;55.948;37.484;2024-01-11T09:21:29;97050.81;;;-0.02;69.30
80137;BME280;69466;55.948;37.484;2024-01-11T09:23:55;97042.88;;;-0.08;68.60
80137;BME280;69466;55.948;37.484;2024-01-11T09:26:21;97056.91;;;-0.26;69.98
80137;BME280;69466;55.948;37.484;2024-01-11T09:28:49;97054.75;;;-0.42;69.17
80137;BME280;69466;55.948;37.484;2024-01-11T09:31:15;97081.47;;;-0.62;69.69
80137;BME280;69466;55.948;37.484;2024-01-11T09:33:41;97055.50;;;-0.73;69.43
80137;BME280;69466;55.948;37.484;2024-01-11T09:36:13;97059.22;;;-0.80;69.80
80137;BME280;69466;55.948;37.484;2024-01-11T09:38:39;97078.06;;;-0.75;69.44
80137;BME280;69466;55.948;37.484;2024-01-11T09:41:12;97064.00;;;-1.02;69.68
80137;BME280;69466;55.948;37.484;2024-01-11T09:43:40;97084.25;;;-0.95;69.43
80137;BME280;69466;55.948;37.484;2024-01-11T09:46:09;97091.59;;;-0.90;69.71
80137;BME280;69466;55.948;37.484;2024-01-11T09:48:38;97085.88;;;-1.00;69.41
80137;BME280;69466;55.948;37.484;2024-01-11T09:51:10;97076.69;;;-0.98;68.98
80137;BME280;69466;55.948;37.484;2024-01-11T09:53:43;97099.00;;;-0.99;68.57
80137;BME280;69466;55.948;37.484;2024-01-11T09:56:10;97079.63;;;-1.25;67.82
80137;BME280;69466;55.948;37.484;2024-01-11T09:58:36;97086.16;;;-1.21;67.54
80137;BME280;69466;55.948;37.484;2024-01-11T10:01:09;97115.78;;;-1.05;66.16
80137;BME280;69466;55.948;37.484;2024-01-11T10:03:39;97104.78;;;-1.15;67.38
80137;BME280;69466;55.948;37.484;2024-01-11T10:06:08;97118.88;;;-1.27;67.71
80137;BME280;69466;55.948;37.484;2024-01-11T10:08:36;97118.50;;;-1.38;67.24
80137;BME280;69466;55.948;37.484;2024-01-11T10:11:02;97133.63;;;-1.45;66.16
80137;BME280;69466;55.948;37.484;2024-01-11T10:13:30;97151.41;;;-1.58;66.69
80137;BME280;69466;55.948;37.484;2024-01-11T10:16:08;97165.13;;;-1.55;66.16
80137;BME280;69466;55.948;37.484;2024-01-11T10:18:36;97191.25;;;-1.85;66.13
80137;BME280;69466;55.948;37.484;2024-01-11T10:21:02;97189.63;;;-1.86;65.99
80137;BME280;69466;55.948;37.484;2024-01-11T10:23:33;97192.22;;;-2.05;65.25
80137;BME280;69466;55.948;37.484;2024-01-11T10:25:59;97190.81;;;-2.49;65.15
80137;BME280;69466;55.948;37.484;2024-01-11T10:28:26;97219.91;;;-2.28;64.43
80137;BME280;69466;55.948;37.484;2024-01-11T10:30:53;97224.53;;;-2.43;63.66
80137;BME280;69466;55.948;37.484;2024-01-11T10:33:20;97204.59;;;-2.66;62.75
80137;BME280;69466;55.948;37.484;2024-01-11T10:35:48;97242.59;;;-2.66;61.94
80137;BME280;69466;55.948;37.484;2024-01-11T10:38:17;97232.94;;;-3.01;61.76
80137;BME280;69466;55.948;37.484;2024-01-11T10:40:44;97255.06;;;-3.37;61.70
80137;BME280;69466;55.948;37.484;2024-01-11T10:43:11;97258.59;;;-3.51;62.68
80137;BME280;69466;55.948;37.484;2024-01-11T10:45:38;97283.66;;;-3.53;61.60
80137;BME280;69466;55.948;37.484;2024-01-11T10:48:13;97291.66;;;-3.68;60.14
80137;BME280;69466;55.948;37.484;2024-01-11T10:50:43;97299.97;;;-3.71;59.41
80137;BME280;69466;55.948;37.484;2024-01-11T10:53:25;97291.78;;;-3.76;58.80
80137;BME280;69466;55.948;37.484;2024-01-11T10:55:55;97284.59;;;-3.97;59.11
80137;BME280;69466;55.948;37.484;2024-01-11T10:58:26;97318.19;;;-3.97;59.34
80137;BME280;69466;55.948;37.484;2024-01-11T11:00:54;97293.56;;;-4.13;59.21
80137;BME280;69466;55.948;37.484;2024-01-11T11:03:23;97299.97;;;-4.36;61.40
80137;BME280;69466;55.948;37.484;2024-01-11T11:05:53;97289.09;;;-4.56;61.28
80137;BME280;69466;55.948;37.484;2024-01-11T11:08:19;97318.47;;;-4.51;61.72
80137;BME280;69466;55.948;37.484;2024-01-11T11:10:46;97342.31;;;-4.51;61.40
80137;BME280;69466;55.948;37.484;2024-01-11T11:13:14;97348.69;;;-4.45;62.27
80137;BME280;69466;55.948;37.484;2024-01-11T11:15:45;97353.50;;;-4.49;61.90
80137;BME280;69466;55.948;37.484;2024-01-11T11:18:13;97361.31;;;-4.70;62.28
80137;BME280;69466;55.948;37.484;2024-01-11T11:20:40;97357.31;;;-4.66;62.61
80137;BME280;69466;55.948;37.484;2024-01-11T11:23:14;97363.31;;;-4.87;62.86
80137;BME280;69466;55.948;37.484;2024-01-11T11:25:45;97387.28;;;-4.88;63.35
80137;BME280;69466;55.948;37.484;2024-01-11T11:28:15;97384.09;;;-5.07;63.72
80137;BME280;69466;55.948;37.484;2024-01-11T11:30:44;97395.38;;;-5.13;63.79
80137;BME280;69466;55.948;37.484;2024-01-11T11:33:21;97416.88;;;-5.16;64.47
80137;BME280;69466;55.948;37.484;2024-01-11T11:35:53;97408.16;;;-5.47;64.77
80137;BME280;69466;55.948;37.484;2024-01-11T11:38:23;97393.69;;;-5.59;64.64
80137;BME280;69466;55.948;37.484;2024-01-11T11:40:52;97424.72;;;-5.61;64.61
80137;BME280;69466;55.948;37.484;2024-01-11T11:43:20;97430.75;;;-5.45;65.26
80137;BME280;69466;55.948;37.484;2024-01-11T11:45:49;97430.34;;;-5.64;65.17
80137;BME280;69466;55.948;37.484;2024-01-11T11:51:19;97434.34;;;-5.76;65.75
80137;BME280;69466;55.948;37.484;2024-01-11T11:53:49;97435.69;;;-5.81;66.40
80137;BME280;69466;55.948;37.484;2024-01-11T11:56:21;97443.06;;;-5.68;66.58
80137;BME280;69466;55.948;37.484;2024-01-11T11:58:48;97455.13;;;-5.65;67.09
80137;BME280;69466;55.948;37.484;2024-01-11T12:01:19;97458.63;;;-5.81;68.16
80137;BME280;69466;55.948;37.484;2024-01-11T12:03:45;97466.03;;;-5.76;68.73
80137;BME280;69466;55.948;37.484;2024-01-11T12:06:21;97444.53;;;-5.96;69.01
80137;BME280;69466;55.948;37.484;2024-01-11T12:08:54;97454.94;;;-6.11;68.95
80137;BME280;69466;55.948;37.484;2024-01-11T12:11:34;97434.69;;;-6.27;68.10
80137;BME280;69466;55.948;37.484;2024-01-11T12:14:00;97464.91;;;-6.37;67.98
80137;BME280;69466;55.948;37.484;2024-01-11T12:16:27;97474.28;;;-6.43;68.59
80137;BME280;69466;55.948;37.484;2024-01-11T12:18:54;97472.31;;;-6.65;68.62
80137;BME280;69466;55.948;37.484;2024-01-11T12:21:24;97454.16;;;-6.76;69.10
80137;BME280;69466;55.948;37.484;2024-01-11T12:23:52;97481.69;;;-6.62;68.51
80137;BME280;69466;55.948;37.484;2024-01-11T12:26:18;97498.84;;;-6.66;67.06
80137;BME280;69466;55.948;37.484;2024-01-11T12:28:47;97519.94;;;-6.66;65.84
80137;BME280;69466;55.948;37.484;2024-01-11T12:31:13;97516.47;;;-6.59;65.67
80137;BME280;69466;55.948;37.484;2024-01-11T12:33:42;97503.59;;;-6.78;66.14
80137;BME280;69466;55.948;37.484;2024-01-11T12:36:11;97531.63;;;-6.77;66.83
80137;BME280;69466;55.948;37.484;2024-01-11T12:38:37;97506.69;;;-7.15;66.61
80137;BME280;69466;55.948;37.484;2024-01-11T12:41:06;97545.63;;;-6.85;65.20
80137;BME280;69466;55.948;37.484;2024-01-11T12:43:33;97530.56;;;-7.08;63.55
80137;BME280;69466;55.948;37.484;2024-01-11T12:45:59;97507.91;;;-7.35;63.11
80137;BME280;69466;55.948;37.484;2024-01-11T12:48:26;97553.44;;;-7.09;62.81
80137;BME280;69466;55.948;37.484;2024-01-11T12:50:52;97542.28;;;-7.03;63.32
80137;BME280;69466;55.948;37.484;2024-01-11T12:53:20;97525.59;;;-7.20;62.58
80137;BME280;69466;55.948;37.484;2024-01-11T12:55:48;97537.34;;;-7.06;62.95